Time,TemperatureF,DewpointF,PressureIn,WindDirection,WindDirectionDegrees,WindSpeedMPH,WindSpeedGustMPH,Humidity,HourlyPrecipIn,Conditions,Clouds,dailyrainin,SoftwareType,DateUTC
2013-01-31 00:00:00,16.1,12.0,29.82,NW,324,10.0,17.0,82,0.00,,,0.00,weatherlink.com 1.10,2013-01-31 06:00:00,
2013-01-31 00:15:00,16.0,12.0,29.82,NNW,338,6.0,19.0,83,0.00,,,0.00,weatherlink.com 1.10,2013-01-31 06:15:00,
2013-01-31 00:30:00,16.1,12.0,29.83,NW,306,11.0,17.0,84,0.00,,,0.00,weatherlink.com 1.10,2013-01-31 06:30:00,
2013-01-31 00:45:00,16.1,12.0,29.83,West,275,8.0,15.0,83,0.00,,,0.00,weatherlink.com 1.10,2013-01-31 06:45:00,
2013-01-31 01:00:00,15.8,12.0,29.83,NW,314,6.0,15.0,84,0.00,,,0.00,weatherlink.com 1.10,2013-01-31 07:00:00,
2013-01-31 01:15:00,15.8,12.0,29.84,NNW,327,4.0,13.0,84,0.00,,,0.00,weatherlink.com 1.10,2013-01-31 07:15:00,
2013-01-31 01:31:00,16.4,12.0,29.84,NNW,328,10.0,11.0,84,0.00,,,0.00,weatherlink.com 1.10,2013-01-31 07:31:00,
2013-01-31 01:46:00,17.0,13.0,29.84,NW,314,9.0,11.0,85,0.00,,,0.00,weatherlink.com 1.10,2013-01-31 07:46:00,
2013-01-31 02:01:00,18.0,14.0,29.85,WNW,300,7.0,11.0,85,0.00,,,0.00,weatherlink.com 1.10,2013-01-31 08:01:00,
2013-01-31 02:16:00,18.7,15.0,29.85,WNW,300,7.0,14.0,84,0.00,,,0.00,weatherlink.com 1.10,2013-01-31 08:16:00,
2013-01-31 02:31:00,19.0,15.0,29.86,West,279,2.0,15.0,84,0.00,,,0.00,weatherlink.com 1.10,2013-01-31 08:31:00,
2013-01-31 02:46:00,19.6,16.0,29.86,NNW,327,8.0,15.0,85,0.00,,,0.00,weatherlink.com 1.10,2013-01-31 08:46:00,
2013-01-31 03:01:00,20.0,16.0,29.85,NW,311,11.0,17.0,83,0.00,,,0.00,weatherlink.com 1.10,2013-01-31 09:01:00,
2013-01-31 03:16:00,20.0,16.0,29.85,WNW,296,10.0,17.0,83,0.00,,,0.00,weatherlink.com 1.10,2013-01-31 09:16:00,
2013-01-31 03:31:00,19.9,15.0,29.86,NW,312,6.0,17.0,81,0.00,,,0.00,weatherlink.com 1.10,2013-01-31 09:31:00,
2013-01-31 03:46:00,19.8,15.0,29.86,NNW,336,8.0,16.0,81,0.00,,,0.00,weatherlink.com 1.10,2013-01-31 09:46:00,
2013-01-31 04:01:00,19.3,14.0,29.86,NNW,329,16.0,16.0,79,0.00,,,0.00,weatherlink.com 1.10,2013-01-31 10:01:00,
2013-01-31 04:16:00,18.5,13.0,29.87,NW,319,9.0,17.0,78,0.00,,,0.00,weatherlink.com 1.10,2013-01-31 10:16:00,
2013-01-31 04:31:00,17.3,12.0,29.88,NW,322,10.0,18.0,81,0.00,,,0.00,weatherlink.com 1.10,2013-01-31 10:31:00,
2013-01-31 04:47:00,16.0,10.0,29.88,WNW,297,6.0,17.0,76,0.00,,,0.00,weatherlink.com 1.10,2013-01-31 10:47:00,
2013-01-31 05:02:00,15.2,10.0,29.88,WNW,301,13.0,15.0,78,0.00,,,0.00,weatherlink.com 1.10,2013-01-31 11:02:00,
2013-01-31 05:17:00,14.7,9.0,29.88,NW,310,3.0,14.0,79,0.00,,,0.00,weatherlink.com 1.10,2013-01-31 11:17:00,
2013-01-31 05:32:00,14.5,9.0,29.89,NW,315,11.0,15.0,79,0.00,,,0.00,weatherlink.com 1.10,2013-01-31 11:32:00,
2013-01-31 05:47:00,14.4,9.0,29.90,West,281,9.0,18.0,80,0.00,,,0.00,weatherlink.com 1.10,2013-01-31 11:47:00,
2013-01-31 06:02:00,13.6,8.0,29.90,NNW,342,15.0,17.0,79,0.00,,,0.00,weatherlink.com 1.10,2013-01-31 12:02:00,
2013-01-31 06:17:00,13.1,8.0,29.91,NW,317,3.0,13.0,79,0.00,,,0.00,weatherlink.com 1.10,2013-01-31 12:17:00,
2013-01-31 06:32:00,13.0,8.0,29.91,WNW,296,9.0,14.0,80,0.00,,,0.00,weatherlink.com 1.10,2013-01-31 12:32:00,
2013-01-31 06:47:00,13.0,8.0,29.92,NNW,331,4.0,16.0,81,0.00,,,0.00,weatherlink.com 1.10,2013-01-31 12:47:00,
2013-01-31 07:02:00,13.0,8.0,29.93,NW,325,7.0,14.0,81,0.00,,,0.00,weatherlink.com 1.10,2013-01-31 13:02:00,
2013-01-31 07:17:00,12.8,8.0,29.93,NNW,327,5.0,16.0,80,0.00,,,0.00,weatherlink.com 1.10,2013-01-31 13:17:00,
2013-01-31 07:32:00,12.6,8.0,29.94,West,275,3.0,11.0,83,0.00,,,0.00,weatherlink.com 1.10,2013-01-31 13:32:00,
2013-01-31 07:47:00,12.8,8.0,29.94,NNW,336,9.0,13.0,82,0.00,,,0.00,weatherlink.com 1.10,2013-01-31 13:47:00,
2013-01-31 08:03:00,13.2,8.0,29.95,WNW,286,7.0,15.0,80,0.00,,,0.00,weatherlink.com 1.10,2013-01-31 14:03:00,
2013-01-31 08:18:00,13.3,9.0,29.95,North,350,5.0,14.0,81,0.00,,,0.00,weatherlink.com 1.10,2013-01-31 14:18:00,
2013-01-31 08:33:00,13.4,9.0,29.96,NW,324,7.0,13.0,81,0.00,,,0.00,weatherlink.com 1.10,2013-01-31 14:33:00,
2013-01-31 08:48:00,13.3,8.0,29.96,WNW,286,12.0,15.0,80,0.00,,,0.00,weatherlink.com 1.10,2013-01-31 14:48:00,
2013-01-31 09:03:00,13.4,9.0,29.97,NW,315,4.0,13.0,82,0.00,,,0.00,weatherlink.com 1.10,2013-01-31 15:03:00,
2013-01-31 09:18:00,13.0,8.0,29.98,NNW,333,10.0,16.0,80,0.00,,,0.00,weatherlink.com 1.10,2013-01-31 15:18:00,
2013-01-31 09:33:00,13.4,8.0,29.99,NW,316,11.0,16.0,78,0.00,,,0.00,weatherlink.com 1.10,2013-01-31 15:33:00,
2013-01-31 09:48:00,13.1,7.0,30.00,WNW,286,7.0,16.0,78,0.00,,,0.00,weatherlink.com 1.10,2013-01-31 15:48:00,
2013-01-31 10:03:00,12.9,7.0,30.00,NNW,347,9.0,15.0,77,0.00,,,0.00,weatherlink.com 1.10,2013-01-31 16:03:00,
2013-01-31 10:18:00,13.9,8.0,30.01,NW,305,6.0,14.0,77,0.00,,,0.00,weatherlink.com 1.10,2013-01-31 16:18:00,
2013-01-31 10:33:00,13.9,8.0,30.02,WNW,296,15.0,19.0,77,0.00,,,0.00,weatherlink.com 1.10,2013-01-31 16:33:00,
2013-01-31 10:48:00,13.9,7.0,30.02,NNW,340,5.0,18.0,75,0.00,,,0.00,weatherlink.com 1.10,2013-01-31 16:48:00,
2013-01-31 11:03:00,13.9,7.0,30.02,NNW,335,8.0,16.0,75,0.00,,,0.00,weatherlink.com 1.10,2013-01-31 17:03:00,
2013-01-31 11:18:00,14.6,9.0,30.02,NNW,337,11.0,14.0,77,0.00,,,0.00,weatherlink.com 1.10,2013-01-31 17:18:00,
2013-01-31 11:34:00,14.1,7.0,30.03,NW,323,11.0,17.0,74,0.00,,,0.00,weatherlink.com 1.10,2013-01-31 17:34:00,
2013-01-31 11:49:00,13.5,7.0,30.04,WNW,289,11.0,17.0,75,0.00,,,0.00,weatherlink.com 1.10,2013-01-31 17:49:00,
2013-01-31 12:04:00,14.0,7.0,30.04,NNW,333,5.0,17.0,73,0.00,,,0.00,weatherlink.com 1.10,2013-01-31 18:04:00,
2013-01-31 12:19:00,14.0,7.0,30.05,NW,325,8.0,16.0,75,0.00,,,0.00,weatherlink.com 1.10,2013-01-31 18:19:00,
2013-01-31 12:34:00,12.9,6.0,30.05,NNW,334,7.0,23.0,74,0.00,,,0.00,weatherlink.com 1.10,2013-01-31 18:34:00,
2013-01-31 12:49:00,12.6,6.0,30.05,NW,306,8.0,18.0,73,0.00,,,0.00,weatherlink.com 1.10,2013-01-31 18:49:00,
2013-01-31 13:04:00,13.4,7.0,30.05,NW,325,5.0,17.0,74,0.00,,,0.00,weatherlink.com 1.10,2013-01-31 19:04:00,
2013-01-31 13:19:00,12.7,6.0,30.05,North,350,9.0,16.0,74,0.00,,,0.00,weatherlink.com 1.10,2013-01-31 19:19:00,
2013-01-31 13:34:00,12.3,6.0,30.06,NW,326,9.0,19.0,74,0.00,,,0.00,weatherlink.com 1.10,2013-01-31 19:34:00,
2013-01-31 13:49:00,12.3,5.0,30.07,North,355,9.0,19.0,72,0.00,,,0.00,weatherlink.com 1.10,2013-01-31 19:49:00,
2013-01-31 15:20:00,10.7,4.0,30.11,NW,320,14.0,20.0,73,0.00,,,0.00,weatherlink.com 1.10,2013-01-31 21:20:00,
2013-01-31 15:35:00,10.7,3.0,30.12,North,350,9.0,19.0,71,0.00,,,0.00,weatherlink.com 1.10,2013-01-31 21:35:00,
2013-01-31 15:50:00,10.5,5.0,30.13,NNW,328,9.0,19.0,77,0.00,,,0.00,weatherlink.com 1.10,2013-01-31 21:50:00,
2013-01-31 16:22:00,9.7,2.0,30.14,NW,315,8.0,20.0,72,0.00,,,0.00,weatherlink.com 1.10,2013-01-31 22:22:00,
2013-01-31 16:36:00,9.0,2.0,30.15,NW,319,11.0,18.0,74,0.00,,,0.00,weatherlink.com 1.10,2013-01-31 22:36:00,
2013-01-31 17:06:00,8.1,2.0,30.16,NNW,331,5.0,17.0,75,0.00,,,0.00,weatherlink.com 1.10,2013-01-31 23:06:00,
2013-01-31 17:21:00,8.0,2.0,30.17,NNW,346,7.0,19.0,76,0.00,,,0.00,weatherlink.com 1.10,2013-01-31 23:21:00,
2013-01-31 17:36:00,7.8,3.0,30.18,NNW,329,10.0,16.0,81,0.00,,,0.00,weatherlink.com 1.10,2013-01-31 23:36:00,
2013-01-31 17:51:00,7.6,2.0,30.19,NNW,344,11.0,18.0,77,0.00,,,0.00,weatherlink.com 1.10,2013-01-31 23:51:00,
2013-01-31 18:06:00,7.2,2.0,30.20,NNE,14,6.0,21.0,78,0.00,,,0.00,weatherlink.com 1.10,2013-02-01 00:06:00,
2013-01-31 18:21:00,7.0,2.0,30.21,North,350,7.0,20.0,78,0.00,,,0.00,weatherlink.com 1.10,2013-02-01 00:21:00,
2013-01-31 18:36:00,6.6,-1.0,30.21,NW,318,10.0,18.0,72,0.00,,,0.00,weatherlink.com 1.10,2013-02-01 00:36:00,
2013-01-31 18:51:00,6.3,-1.0,30.22,NW,312,9.0,20.0,73,0.00,,,0.00,weatherlink.com 1.10,2013-02-01 00:51:00,
2013-01-31 19:06:00,6.1,-1.0,30.23,NNW,346,10.0,20.0,74,0.00,,,0.00,weatherlink.com 1.10,2013-02-01 01:06:00,
2013-01-31 19:21:00,5.9,0.0,30.24,NW,307,8.0,21.0,76,0.00,,,0.00,weatherlink.com 1.10,2013-02-01 01:21:00,
2013-01-31 19:36:00,5.9,0.0,30.25,NNW,336,5.0,15.0,77,0.00,,,0.00,weatherlink.com 1.10,2013-02-01 01:36:00,
2013-01-31 19:52:00,5.6,1.0,30.25,NW,309,10.0,16.0,80,0.00,,,0.00,weatherlink.com 1.10,2013-02-01 01:52:00,
2013-01-31 20:07:00,5.3,-1.0,30.26,NW,325,11.0,24.0,75,0.00,,,0.00,weatherlink.com 1.10,2013-02-01 02:07:00,
2013-01-31 20:22:00,5.2,0.0,30.27,North,355,7.0,14.0,78,0.00,,,0.00,weatherlink.com 1.10,2013-02-01 02:22:00,
2013-01-31 20:37:00,5.0,-1.0,30.28,North,349,11.0,22.0,75,0.00,,,0.00,weatherlink.com 1.10,2013-02-01 02:37:00,
2013-01-31 20:52:00,4.6,-2.0,30.28,NNW,346,17.0,18.0,74,0.00,,,0.00,weatherlink.com 1.10,2013-02-01 02:52:00,
2013-01-31 21:07:00,4.2,-2.0,30.29,NW,322,9.0,19.0,76,0.00,,,0.00,weatherlink.com 1.10,2013-02-01 03:07:00,
2013-01-31 21:22:00,4.0,-1.0,30.30,NW,311,10.0,17.0,79,0.00,,,0.00,weatherlink.com 1.10,2013-02-01 03:22:00,
2013-01-31 21:37:00,3.8,-2.0,30.30,North,349,10.0,21.0,75,0.00,,,0.00,weatherlink.com 1.10,2013-02-01 03:37:00,
2013-01-31 21:52:00,3.6,-2.0,30.31,NW,317,9.0,21.0,76,0.00,,,0.00,weatherlink.com 1.10,2013-02-01 03:52:00,
2013-01-31 22:07:00,3.4,-3.0,30.32,NNW,330,12.0,18.0,74,0.00,,,0.00,weatherlink.com 1.10,2013-02-01 04:07:00,
2013-01-31 22:22:00,3.1,-3.0,30.33,NNW,327,12.0,19.0,76,0.00,,,0.00,weatherlink.com 1.10,2013-02-01 04:22:00,
2013-01-31 22:37:00,3.0,-3.0,30.33,North,355,7.0,17.0,76,0.00,,,0.00,weatherlink.com 1.10,2013-02-01 04:37:00,
2013-01-31 22:52:00,3.0,-4.0,30.34,North,355,8.0,17.0,74,0.00,,,0.00,weatherlink.com 1.10,2013-02-01 04:52:00,
2013-01-31 23:07:00,2.9,-3.0,30.34,NW,315,13.0,19.0,77,0.00,,,0.00,weatherlink.com 1.10,2013-02-01 05:07:00,
2013-01-31 23:23:00,2.8,-3.0,30.34,NW,313,13.0,15.0,77,0.00,,,0.00,weatherlink.com 1.10,2013-02-01 05:23:00,
2013-01-31 23:38:00,2.7,-3.0,30.36,NW,306,5.0,15.0,77,0.00,,,0.00,weatherlink.com 1.10,2013-02-01 05:38:00,
2013-01-31 23:53:00,2.7,-3.0,30.36,West,275,14.0,14.0,77,0.00,,,0.00,weatherlink.com 1.10,2013-02-01 05:53:00,